sensor_id;sensor_type;location;lat;lon;timestamp;P1;durP1;ratioP1;P2;durP2;ratioP2
32321;SDS011;61553;48.994;8.940;2022-07-05T00:00:49;4.38;;;2.70;;
32321;SDS011;61553;48.994;8.940;2022-07-05T00:03:15;3.47;;;2.40;;
32321;SDS011;61553;48.994;8.940;2022-07-05T00:05:41;4.07;;;2.58;;
32321;SDS011;61553;48.994;8.940;2022-07-05T00:08:07;5.70;;;2.40;;
32321;SDS011;61553;48.994;8.940;2022-07-05T00:10:36;5.25;;;2.70;;
32321;SDS011;61553;48.994;8.940;2022-07-05T00:13:02;4.85;;;2.22;;
32321;SDS011;61553;48.994;8.940;2022-07-05T00:15:29;7.93;;;2.95;;
32321;SDS011;61553;48.994;8.940;2022-07-05T00:17:55;5.03;;;3.55;;
32321;SDS011;61553;48.994;8.940;2022-07-05T00:20:21;6.05;;;2.35;;
32321;SDS011;61553;48.994;8.940;2022-07-05T00:22:46;5.38;;;2.90;;
32321;SDS011;61553;48.994;8.940;2022-07-05T00:25:12;4.95;;;2.90;;
32321;SDS011;61553;48.994;8.940;2022-07-05T00:27:38;3.85;;;2.47;;
32321;SDS011;61553;48.994;8.940;2022-07-05T00:30:04;7.15;;;2.60;;
32321;SDS011;61553;48.994;8.940;2022-07-05T00:32:31;3.70;;;2.80;;
32321;SDS011;61553;48.994;8.940;2022-07-05T00:34:57;4.43;;;2.85;;
32321;SDS011;61553;48.994;8.940;2022-07-05T00:37:22;8.02;;;2.75;;
32321;SDS011;61553;48.994;8.940;2022-07-05T00:39:48;4.72;;;3.17;;
32321;SDS011;61553;48.994;8.940;2022-07-05T00:42:14;4.75;;;3.10;;
32321;SDS011;61553;48.994;8.940;2022-07-05T00:44:40;4.40;;;2.78;;
32321;SDS011;61553;48.994;8.940;2022-07-05T00:47:07;6.32;;;3.20;;
32321;SDS011;61553;48.994;8.940;2022-07-05T00:49:34;6.72;;;3.05;;
32321;SDS011;61553;48.994;8.940;2022-07-05T00:52:01;5.00;;;2.70;;
32321;SDS011;61553;48.994;8.940;2022-07-05T00:54:28;5.78;;;2.58;;
32321;SDS011;61553;48.994;8.940;2022-07-05T00:56:54;4.47;;;2.20;;
32321;SDS011;61553;48.994;8.940;2022-07-05T00:59:20;3.95;;;2.25;;
32321;SDS011;61553;48.994;8.940;2022-07-05T01:01:46;5.13;;;2.95;;
32321;SDS011;61553;48.994;8.940;2022-07-05T01:04:12;6.30;;;2.33;;
32321;SDS011;61553;48.994;8.940;2022-07-05T01:06:42;5.90;;;2.35;;
32321;SDS011;61553;48.994;8.940;2022-07-05T01:09:10;6.65;;;2.70;;
32321;SDS011;61553;48.994;8.940;2022-07-05T01:11:41;6.68;;;2.50;;
32321;SDS011;61553;48.994;8.940;2022-07-05T01:14:08;5.38;;;2.30;;
32321;SDS011;61553;48.994;8.940;2022-07-05T01:16:37;6.70;;;2.40;;
32321;SDS011;61553;48.994;8.940;2022-07-05T01:19:04;5.28;;;2.50;;
32321;SDS011;61553;48.994;8.940;2022-07-05T01:21:32;5.90;;;2.42;;
32321;SDS011;61553;48.994;8.940;2022-07-05T01:24:05;5.20;;;2.42;;
32321;SDS011;61553;48.994;8.940;2022-07-05T01:26:32;7.18;;;2.70;;
32321;SDS011;61553;48.994;8.940;2022-07-05T01:28:58;6.50;;;3.00;;
32321;SDS011;61553;48.994;8.940;2022-07-05T01:31:23;6.32;;;2.55;;
32321;SDS011;61553;48.994;8.940;2022-07-05T01:33:49;4.97;;;2.10;;
32321;SDS011;61553;48.994;8.940;2022-07-05T01:36:15;8.05;;;2.28;;
32321;SDS011;61553;48.994;8.940;2022-07-05T01:38:41;6.18;;;2.40;;
32321;SDS011;61553;48.994;8.940;2022-07-05T01:41:08;3.78;;;2.00;;
32321;SDS011;61553;48.994;8.940;2022-07-05T01:43:34;4.97;;;2.35;;
32321;SDS011;61553;48.994;8.940;2022-07-05T01:46:01;3.28;;;2.17;;
32321;SDS011;61553;48.994;8.940;2022-07-05T01:48:29;6.03;;;2.10;;
32321;SDS011;61553;48.994;8.940;2022-07-05T01:51:20;5.13;;;2.00;;
32321;SDS011;61553;48.994;8.940;2022-07-05T01:53:47;5.00;;;2.20;;
32321;SDS011;61553;48.994;8.940;2022-07-05T01:56:16;3.50;;;2.22;;
32321;SDS011;61553;48.994;8.940;2022-07-05T01:58:42;5.78;;;2.25;;
32321;SDS011;61553;48.994;8.940;2022-07-05T02:01:09;4.60;;;2.10;;
32321;SDS011;61553;48.994;8.940;2022-07-05T02:03:35;4.97;;;2.22;;
32321;SDS011;61553;48.994;8.940;2022-07-05T02:06:01;5.68;;;2.00;;
32321;SDS011;61553;48.994;8.940;2022-07-05T02:08:30;4.43;;;2.00;;
32321;SDS011;61553;48.994;8.940;2022-07-05T02:10:56;6.88;;;2.65;;
32321;SDS011;61553;48.994;8.940;2022-07-05T02:13:23;4.25;;;2.00;;
32321;SDS011;61553;48.994;8.940;2022-07-05T02:15:48;4.85;;;2.50;;
32321;SDS011;61553;48.994;8.940;2022-07-05T02:18:14;5.13;;;2.25;;
32321;SDS011;61553;48.994;8.940;2022-07-05T02:20:40;4.47;;;2.30;;
32321;SDS011;61553;48.994;8.940;2022-07-05T02:23:06;4.80;;;1.80;;
32321;SDS011;61553;48.994;8.940;2022-07-05T02:25:33;6.68;;;2.80;;
32321;SDS011;61553;48.994;8.940;2022-07-05T02:27:59;4.75;;;2.60;;
32321;SDS011;61553;48.994;8.940;2022-07-05T02:30:25;5.70;;;2.40;;
32321;SDS011;61553;48.994;8.940;2022-07-05T02:32:51;4.72;;;2.22;;
32321;SDS011;61553;48.994;8.940;2022-07-05T02:35:18;4.82;;;2.28;;
32321;SDS011;61553;48.994;8.940;2022-07-05T02:37:43;4.47;;;2.20;;
32321;SDS011;61553;48.994;8.940;2022-07-05T02:40:11;5.05;;;2.00;;
32321;SDS011;61553;48.994;8.940;2022-07-05T02:42:38;6.13;;;2.15;;
32321;SDS011;61553;48.994;8.940;2022-07-05T02:45:04;3.65;;;2.40;;
32321;SDS011;61553;48.994;8.940;2022-07-05T02:47:31;4.47;;;2.40;;
32321;SDS011;61553;48.994;8.940;2022-07-05T02:49:58;7.35;;;2.78;;
32321;SDS011;61553;48.994;8.940;2022-07-05T02:52:24;7.38;;;2.67;;
32321;SDS011;61553;48.994;8.940;2022-07-05T02:54:50;7.10;;;2.90;;
32321;SDS011;61553;48.994;8.940;2022-07-05T02:57:15;4.80;;;2.67;;
32321;SDS011;61553;48.994;8.940;2022-07-05T02:59:41;7.65;;;2.75;;
32321;SDS011;61553;48.994;8.940;2022-07-05T03:02:07;9.10;;;2.92;;
32321;SDS011;61553;48.994;8.940;2022-07-05T03:04:32;5.90;;;2.40;;
32321;SDS011;61553;48.994;8.940;2022-07-05T03:06:58;6.15;;;2.50;;
32321;SDS011;61553;48.994;8.940;2022-07-05T03:09:24;4.25;;;2.47;;
32321;SDS011;61553;48.994;8.940;2022-07-05T03:11:50;4.22;;;2.72;;
32321;SDS011;61553;48.994;8.940;2022-07-05T03:14:16;6.57;;;2.72;;
32321;SDS011;61553;48.994;8.940;2022-07-05T03:16:42;5.03;;;2.40;;
32321;SDS011;61553;48.994;8.940;2022-07-05T03:19:09;7.10;;;2.63;;
32321;SDS011;61553;48.994;8.940;2022-07-05T03:21:35;6.97;;;2.88;;
32321;SDS011;61553;48.994;8.940;2022-07-05T03:24:01;8.48;;;3.00;;
32321;SDS011;61553;48.994;8.940;2022-07-05T03:26:27;4.00;;;2.13;;
32321;SDS011;61553;48.994;8.940;2022-07-05T03:28:52;7.03;;;2.40;;
32321;SDS011;61553;48.994;8.940;2022-07-05T03:31:18;5.15;;;2.22;;
32321;SDS011;61553;48.994;8.940;2022-07-05T03:33:44;7.18;;;2.20;;
32321;SDS011;61553;48.994;8.940;2022-07-05T03:36:09;6.22;;;2.65;;
32321;SDS011;61553;48.994;8.940;2022-07-05T03:38:35;4.32;;;2.40;;
32321;SDS011;61553;48.994;8.940;2022-07-05T03:41:01;5.82;;;2.58;;
32321;SDS011;61553;48.994;8.940;2022-07-05T03:43:27;5.72;;;2.53;;
32321;SDS011;61553;48.994;8.940;2022-07-05T03:45:53;5.38;;;2.60;;
32321;SDS011;61553;48.994;8.940;2022-07-05T03:48:19;5.97;;;2.60;;
32321;SDS011;61553;48.994;8.940;2022-07-05T03:50:45;3.70;;;2.45;;
32321;SDS011;61553;48.994;8.940;2022-07-05T03:53:11;4.78;;;2.22;;
32321;SDS011;61553;48.994;8.940;2022-07-05T03:55:37;6.55;;;1.95;;
32321;SDS011;61553;48.994;8.940;2022-07-05T03:58:03;4.07;;;1.92;;
32321;SDS011;61553;48.994;8.940;2022-07-05T04:00:29;9.55;;;2.10;;
32321;SDS011;61553;48.994;8.940;2022-07-05T04:02:54;4.00;;;1.90;;
32321;SDS011;61553;48.994;8.940;2022-07-05T04:05:20;7.25;;;2.15;;
32321;SDS011;61553;48.994;8.940;2022-07-05T04:07:49;4.50;;;1.80;;
32321;SDS011;61553;48.994;8.940;2022-07-05T04:10:16;5.10;;;2.17;;
32321;SDS011;61553;48.994;8.940;2022-07-05T04:12:42;4.53;;;2.00;;
32321;SDS011;61553;48.994;8.940;2022-07-05T04:15:09;7.30;;;2.00;;
32321;SDS011;61553;48.994;8.940;2022-07-05T04:17:38;4.65;;;2.08;;
32321;SDS011;61553;48.994;8.940;2022-07-05T04:20:14;6.72;;;1.90;;
32321;SDS011;61553;48.994;8.940;2022-07-05T04:22:40;5.47;;;2.33;;
32321;SDS011;61553;48.994;8.940;2022-07-05T04:25:07;4.10;;;2.20;;
32321;SDS011;61553;48.994;8.940;2022-07-05T04:27:51;6.95;;;2.05;;
32321;SDS011;61553;48.994;8.940;2022-07-05T04:30:19;3.72;;;1.85;;
32321;SDS011;61553;48.994;8.940;2022-07-05T04:32:46;8.13;;;1.95;;
32321;SDS011;61553;48.994;8.940;2022-07-05T04:35:12;5.75;;;1.80;;
32321;SDS011;61553;48.994;8.940;2022-07-05T04:37:38;4.65;;;2.00;;
32321;SDS011;61553;48.994;8.940;2022-07-05T04:40:05;11.70;;;2.20;;
32321;SDS011;61553;48.994;8.940;2022-07-05T04:42:32;7.80;;;2.10;;
32321;SDS011;61553;48.994;8.940;2022-07-05T04:44:57;5.53;;;2.05;;
32321;SDS011;61553;48.994;8.940;2022-07-05T04:47:23;13.43;;;2.35;;
32321;SDS011;61553;48.994;8.940;2022-07-05T04:49:50;8.35;;;2.22;;
32321;SDS011;61553;48.994;8.940;2022-07-05T04:52:16;11.95;;;2.35;;
32321;SDS011;61553;48.994;8.940;2022-07-05T04:54:42;6.50;;;2.40;;
32321;SDS011;61553;48.994;8.940;2022-07-05T04:57:08;5.72;;;2.55;;
32321;SDS011;61553;48.994;8.940;2022-07-05T04:59:34;11.77;;;3.75;;
32321;SDS011;61553;48.994;8.940;2022-07-05T05:02:00;6.57;;;2.60;;
32321;SDS011;61553;48.994;8.940;2022-07-05T05:04:25;5.72;;;2.00;;
32321;SDS011;61553;48.994;8.940;2022-07-05T05:06:51;7.18;;;1.80;;
32321;SDS011;61553;48.994;8.940;2022-07-05T05:09:16;4.45;;;1.52;;
32321;SDS011;61553;48.994;8.940;2022-07-05T05:11:42;8.30;;;1.75;;
32321;SDS011;61553;48.994;8.940;2022-07-05T05:14:08;6.07;;;1.95;;
32321;SDS011;61553;48.994;8.940;2022-07-05T05:16:33;7.20;;;1.80;;
32321;SDS011;61553;48.994;8.940;2022-07-05T05:18:59;8.35;;;2.00;;
32321;SDS011;61553;48.994;8.940;2022-07-05T05:21:25;8.45;;;1.77;;
32321;SDS011;61553;48.994;8.940;2022-07-05T05:23:50;7.60;;;1.58;;
32321;SDS011;61553;48.994;8.940;2022-07-05T05:26:16;7.50;;;2.17;;
32321;SDS011;61553;48.994;8.940;2022-07-05T05:28:42;6.05;;;1.95;;
32321;SDS011;61553;48.994;8.940;2022-07-05T05:31:07;6.57;;;1.70;;
32321;SDS011;61553;48.994;8.940;2022-07-05T05:33:34;5.07;;;1.70;;
32321;SDS011;61553;48.994;8.940;2022-07-05T05:36:00;5.63;;;2.15;;
32321;SDS011;61553;48.994;8.940;2022-07-05T05:38:26;3.60;;;1.52;;
32321;SDS011;61553;48.994;8.940;2022-07-05T05:40:52;5.53;;;1.95;;
32321;SDS011;61553;48.994;8.940;2022-07-05T05:43:18;6.88;;;2.05;;
32321;SDS011;61553;48.994;8.940;2022-07-05T05:45:44;4.20;;;2.15;;
32321;SDS011;61553;48.994;8.940;2022-07-05T05:48:10;4.43;;;1.88;;
32321;SDS011;61553;48.994;8.940;2022-07-05T05:50:36;5.65;;;1.40;;
32321;SDS011;61553;48.994;8.940;2022-07-05T05:53:06;7.40;;;1.58;;
32321;SDS011;61553;48.994;8.940;2022-07-05T05:55:32;7.47;;;1.70;;
32321;SDS011;61553;48.994;8.940;2022-07-05T05:58:12;4.70;;;1.00;;
32321;SDS011;61553;48.994;8.940;2022-07-05T06:00:45;6.32;;;1.40;;
32321;SDS011;61553;48.994;8.940;2022-07-05T06:05:43;4.63;;;1.27;;
32321;SDS011;61553;48.994;8.940;2022-07-05T06:08:08;4.43;;;1.08;;
32321;SDS011;61553;48.994;8.940;2022-07-05T06:10:35;3.13;;;1.00;;
32321;SDS011;61553;48.994;8.940;2022-07-05T06:13:02;4.13;;;1.20;;
32321;SDS011;61553;48.994;8.940;2022-07-05T06:15:31;2.35;;;1.10;;
32321;SDS011;61553;48.994;8.940;2022-07-05T06:17:57;5.78;;;1.10;;
32321;SDS011;61553;48.994;8.940;2022-07-05T06:20:23;5.13;;;1.60;;
32321;SDS011;61553;48.994;8.940;2022-07-05T06:22:54;5.50;;;1.40;;
32321;SDS011;61553;48.994;8.940;2022-07-05T06:25:20;7.32;;;1.55;;
32321;SDS011;61553;48.994;8.940;2022-07-05T06:27:47;5.93;;;1.60;;
32321;SDS011;61553;48.994;8.940;2022-07-05T06:30:16;5.43;;;1.55;;
32321;SDS011;61553;48.994;8.940;2022-07-05T06:32:43;4.55;;;1.23;;
32321;SDS011;61553;48.994;8.940;2022-07-05T06:35:10;2.35;;;1.10;;
32321;SDS011;61553;48.994;8.940;2022-07-05T06:37:52;3.65;;;1.20;;
32321;SDS011;61553;48.994;8.940;2022-07-05T06:40:23;3.22;;;1.33;;
32321;SDS011;61553;48.994;8.940;2022-07-05T06:42:53;5.65;;;1.25;;
32321;SDS011;61553;48.994;8.940;2022-07-05T06:45:20;2.15;;;0.88;;
32321;SDS011;61553;48.994;8.940;2022-07-05T06:47:59;3.17;;;1.10;;
32321;SDS011;61553;48.994;8.940;2022-07-05T06:50:27;6.82;;;1.33;;
32321;SDS011;61553;48.994;8.940;2022-07-05T06:52:54;4.45;;;1.48;;
32321;SDS011;61553;48.994;8.940;2022-07-05T06:55:20;6.88;;;1.30;;
32321;SDS011;61553;48.994;8.940;2022-07-05T06:57:46;7.13;;;1.50;;
32321;SDS011;61553;48.994;8.940;2022-07-05T07:00:12;4.70;;;1.35;;
32321;SDS011;61553;48.994;8.940;2022-07-05T07:02:39;5.13;;;1.38;;
32321;SDS011;61553;48.994;8.940;2022-07-05T07:05:04;3.35;;;1.00;;
32321;SDS011;61553;48.994;8.940;2022-07-05T07:07:31;4.78;;;1.23;;
32321;SDS011;61553;48.994;8.940;2022-07-05T07:10:15;6.43;;;1.50;;
32321;SDS011;61553;48.994;8.940;2022-07-05T07:12:41;5.65;;;1.42;;
32321;SDS011;61553;48.994;8.940;2022-07-05T07:15:07;6.70;;;1.30;;
32321;SDS011;61553;48.994;8.940;2022-07-05T07:17:33;7.05;;;1.38;;
32321;SDS011;61553;48.994;8.940;2022-07-05T07:19:58;2.85;;;0.95;;
32321;SDS011;61553;48.994;8.940;2022-07-05T07:22:24;3.80;;;1.23;;
32321;SDS011;61553;48.994;8.940;2022-07-05T07:24:50;2.53;;;1.08;;
32321;SDS011;61553;48.994;8.940;2022-07-05T07:27:15;2.80;;;1.08;;
32321;SDS011;61553;48.994;8.940;2022-07-05T07:29:41;3.17;;;1.10;;
32321;SDS011;61553;48.994;8.940;2022-07-05T07:32:07;1.90;;;0.80;;
32321;SDS011;61553;48.994;8.940;2022-07-05T07:34:34;4.13;;;1.30;;
32321;SDS011;61553;48.994;8.940;2022-07-05T07:37:02;2.10;;;0.98;;
32321;SDS011;61553;48.994;8.940;2022-07-05T07:39:28;4.72;;;1.45;;
32321;SDS011;61553;48.994;8.940;2022-07-05T07:41:56;4.78;;;1.20;;
32321;SDS011;61553;48.994;8.940;2022-07-05T07:44:23;2.70;;;0.90;;
32321;SDS011;61553;48.994;8.940;2022-07-05T07:46:48;2.55;;;1.00;;
32321;SDS011;61553;48.994;8.940;2022-07-05T07:49:14;5.88;;;1.20;;
32321;SDS011;61553;48.994;8.940;2022-07-05T07:51:40;5.05;;;1.20;;
32321;SDS011;61553;48.994;8.940;2022-07-05T07:54:06;2.88;;;1.02;;
32321;SDS011;61553;48.994;8.940;2022-07-05T07:56:31;2.60;;;1.25;;
32321;SDS011;61553;48.994;8.940;2022-07-05T07:58:57;3.03;;;1.00;;
32321;SDS011;61553;48.994;8.940;2022-07-05T08:01:23;4.30;;;0.90;;
32321;SDS011;61553;48.994;8.940;2022-07-05T08:03:49;3.33;;;1.10;;
32321;SDS011;61553;48.994;8.940;2022-07-05T08:06:15;2.60;;;1.30;;
32321;SDS011;61553;48.994;8.940;2022-07-05T08:08:41;3.97;;;0.90;;
32321;SDS011;61553;48.994;8.940;2022-07-05T08:11:12;3.15;;;0.95;;
32321;SDS011;61553;48.994;8.940;2022-07-05T08:13:38;3.50;;;1.30;;
32321;SDS011;61553;48.994;8.940;2022-07-05T08:16:05;2.67;;;1.10;;
32321;SDS011;61553;48.994;8.940;2022-07-05T08:18:31;6.82;;;1.23;;
32321;SDS011;61553;48.994;8.940;2022-07-05T08:21:16;4.50;;;1.13;;
32321;SDS011;61553;48.994;8.940;2022-07-05T08:24:00;3.47;;;0.70;;
32321;SDS011;61553;48.994;8.940;2022-07-05T08:26:27;4.00;;;1.17;;
32321;SDS011;61553;48.994;8.940;2022-07-05T08:28:53;3.97;;;1.33;;
32321;SDS011;61553;48.994;8.940;2022-07-05T08:31:19;3.03;;;1.08;;
32321;SDS011;61553;48.994;8.940;2022-07-05T08:33:45;2.65;;;1.10;;
32321;SDS011;61553;48.994;8.940;2022-07-05T08:36:12;2.45;;;0.80;;
32321;SDS011;61553;48.994;8.940;2022-07-05T08:38:38;4.53;;;1.10;;
32321;SDS011;61553;48.994;8.940;2022-07-05T08:41:03;4.63;;;1.02;;
32321;SDS011;61553;48.994;8.940;2022-07-05T08:43:32;3.55;;;1.30;;
32321;SDS011;61553;48.994;8.940;2022-07-05T08:46:01;2.97;;;1.30;;
32321;SDS011;61553;48.994;8.940;2022-07-05T08:48:28;5.63;;;1.17;;
32321;SDS011;61553;48.994;8.940;2022-07-05T08:50:55;3.45;;;1.20;;
32321;SDS011;61553;48.994;8.940;2022-07-05T08:53:22;3.20;;;1.20;;
32321;SDS011;61553;48.994;8.940;2022-07-05T08:55:50;3.85;;;1.23;;
32321;SDS011;61553;48.994;8.940;2022-07-05T08:58:15;2.80;;;1.10;;
32321;SDS011;61553;48.994;8.940;2022-07-05T09:00:42;6.22;;;1.45;;
32321;SDS011;61553;48.994;8.940;2022-07-05T09:03:08;2.75;;;1.20;;
32321;SDS011;61553;48.994;8.940;2022-07-05T09:05:43;7.30;;;1.38;;
32321;SDS011;61553;48.994;8.940;2022-07-05T09:08:11;3.55;;;1.20;;
32321;SDS011;61553;48.994;8.940;2022-07-05T09:10:40;3.58;;;1.30;;
32321;SDS011;61553;48.994;8.940;2022-07-05T09:13:08;3.40;;;1.20;;
32321;SDS011;61553;48.994;8.940;2022-07-05T09:15:33;4.35;;;1.25;;
32321;SDS011;61553;48.994;8.940;2022-07-05T09:18:02;4.05;;;1.13;;
32321;SDS011;61553;48.994;8.940;2022-07-05T09:20:28;3.85;;;1.50;;
32321;SDS011;61553;48.994;8.940;2022-07-05T09:22:54;2.53;;;1.23;;
32321;SDS011;61553;48.994;8.940;2022-07-05T09:25:30;3.95;;;1.25;;
32321;SDS011;61553;48.994;8.940;2022-07-05T09:27:59;4.22;;;1.17;;
32321;SDS011;61553;48.994;8.940;2022-07-05T09:33:02;3.90;;;1.33;;
32321;SDS011;61553;48.994;8.940;2022-07-05T09:35:29;6.43;;;1.20;;
32321;SDS011;61553;48.994;8.940;2022-07-05T09:37:55;3.00;;;1.13;;
32321;SDS011;61553;48.994;8.940;2022-07-05T09:40:20;3.25;;;1.42;;
32321;SDS011;61553;48.994;8.940;2022-07-05T09:42:46;4.03;;;1.23;;
32321;SDS011;61553;48.994;8.940;2022-07-05T09:45:12;2.92;;;1.38;;
32321;SDS011;61553;48.994;8.940;2022-07-05T09:47:46;2.42;;;0.95;;
32321;SDS011;61553;48.994;8.940;2022-07-05T09:50:12;3.47;;;1.33;;
32321;SDS011;61553;48.994;8.940;2022-07-05T09:52:41;3.03;;;1.10;;
32321;SDS011;61553;48.994;8.940;2022-07-05T09:55:11;1.95;;;1.00;;
32321;SDS011;61553;48.994;8.940;2022-07-05T09:57:45;3.45;;;1.30;;
32321;SDS011;61553;48.994;8.940;2022-07-05T10:00:21;2.92;;;1.20;;
32321;SDS011;61553;48.994;8.940;2022-07-05T10:02:48;4.05;;;1.23;;
32321;SDS011;61553;48.994;8.940;2022-07-05T10:10:14;4.27;;;1.20;;
32321;SDS011;61553;48.994;8.940;2022-07-05T10:12:42;2.92;;;0.85;;
32321;SDS011;61553;48.994;8.940;2022-07-05T10:15:10;3.13;;;1.17;;
32321;SDS011;61553;48.994;8.940;2022-07-05T10:17:39;4.60;;;1.65;;
32321;SDS011;61553;48.994;8.940;2022-07-05T10:20:15;5.40;;;1.15;;
32321;SDS011;61553;48.994;8.940;2022-07-05T10:22:42;3.10;;;1.05;;
32321;SDS011;61553;48.994;8.940;2022-07-05T10:25:08;3.83;;;1.08;;
32321;SDS011;61553;48.994;8.940;2022-07-05T10:27:34;2.60;;;0.90;;
32321;SDS011;61553;48.994;8.940;2022-07-05T10:30:02;2.60;;;1.10;;
32321;SDS011;61553;48.994;8.940;2022-07-05T10:32:28;2.35;;;1.10;;
32321;SDS011;61553;48.994;8.940;2022-07-05T10:34:55;4.40;;;1.17;;
32321;SDS011;61553;48.994;8.940;2022-07-05T10:37:27;4.28;;;1.10;;
32321;SDS011;61553;48.994;8.940;2022-07-05T10:39:54;4.28;;;1.17;;
32321;SDS011;61553;48.994;8.940;2022-07-05T10:42:21;8.43;;;1.38;;
32321;SDS011;61553;48.994;8.940;2022-07-05T10:44:49;3.58;;;1.05;;
32321;SDS011;61553;48.994;8.940;2022-07-05T10:47:15;3.90;;;0.90;;
32321;SDS011;61553;48.994;8.940;2022-07-05T10:49:42;3.92;;;1.20;;
32321;SDS011;61553;48.994;8.940;2022-07-05T10:52:23;2.97;;;1.27;;
32321;SDS011;61553;48.994;8.940;2022-07-05T10:55:23;6.63;;;1.27;;
32321;SDS011;61553;48.994;8.940;2022-07-05T10:57:41;5.80;;;1.35;;
32321;SDS011;61553;48.994;8.940;2022-07-05T11:00:08;5.43;;;1.30;;
32321;SDS011;61553;48.994;8.940;2022-07-05T11:02:35;2.50;;;1.00;;
32321;SDS011;61553;48.994;8.940;2022-07-05T11:05:02;4.28;;;1.35;;
32321;SDS011;61553;48.994;8.940;2022-07-05T11:10:25;4.47;;;1.15;;
32321;SDS011;61553;48.994;8.940;2022-07-05T11:12:51;5.53;;;1.33;;
32321;SDS011;61553;48.994;8.940;2022-07-05T11:15:16;6.55;;;1.00;;
32321;SDS011;61553;48.994;8.940;2022-07-05T11:17:42;2.97;;;0.93;;
32321;SDS011;61553;48.994;8.940;2022-07-05T11:23:55;4.97;;;1.17;;
32321;SDS011;61553;48.994;8.940;2022-07-05T11:25:53;4.30;;;1.33;;
32321;SDS011;61553;48.994;8.940;2022-07-05T11:28:20;2.92;;;1.15;;
32321;SDS011;61553;48.994;8.940;2022-07-05T11:30:52;3.60;;;1.08;;
32321;SDS011;61553;48.994;8.940;2022-07-05T11:33:31;3.22;;;0.95;;
32321;SDS011;61553;48.994;8.940;2022-07-05T11:35:58;2.78;;;1.02;;
32321;SDS011;61553;48.994;8.940;2022-07-05T11:38:24;3.78;;;1.10;;
32321;SDS011;61553;48.994;8.940;2022-07-05T11:40:50;2.83;;;0.90;;
32321;SDS011;61553;48.994;8.940;2022-07-05T11:43:28;3.83;;;1.10;;
32321;SDS011;61553;48.994;8.940;2022-07-05T11:45:58;4.70;;;1.20;;
32321;SDS011;61553;48.994;8.940;2022-07-05T11:48:25;3.85;;;1.00;;
32321;SDS011;61553;48.994;8.940;2022-07-05T11:50:52;3.08;;;1.00;;
32321;SDS011;61553;48.994;8.940;2022-07-05T11:53:28;4.38;;;1.50;;
32321;SDS011;61553;48.994;8.940;2022-07-05T11:55:58;6.45;;;2.30;;
32321;SDS011;61553;48.994;8.940;2022-07-05T11:58:31;3.45;;;1.20;;
32321;SDS011;61553;48.994;8.940;2022-07-05T12:00:57;5.35;;;1.42;;
32321;SDS011;61553;48.994;8.940;2022-07-05T12:03:23;2.15;;;0.93;;
32321;SDS011;61553;48.994;8.940;2022-07-05T12:05:49;4.05;;;1.17;;
32321;SDS011;61553;48.994;8.940;2022-07-05T12:08:22;3.78;;;1.25;;
32321;SDS011;61553;48.994;8.940;2022-07-05T12:10:49;4.00;;;1.10;;
32321;SDS011;61553;48.994;8.940;2022-07-05T12:13:46;5.55;;;1.33;;
32321;SDS011;61553;48.994;8.940;2022-07-05T12:16:13;4.85;;;1.15;;
32321;SDS011;61553;48.994;8.940;2022-07-05T12:19:13;2.63;;;1.10;;
32321;SDS011;61553;48.994;8.940;2022-07-05T12:21:32;5.35;;;1.40;;
32321;SDS011;61553;48.994;8.940;2022-07-05T12:23:57;3.65;;;1.27;;
32321;SDS011;61553;48.994;8.940;2022-07-05T12:26:23;4.07;;;1.10;;
32321;SDS011;61553;48.994;8.940;2022-07-05T12:28:49;3.03;;;1.10;;
32321;SDS011;61553;48.994;8.940;2022-07-05T12:31:16;4.97;;;1.10;;
32321;SDS011;61553;48.994;8.940;2022-07-05T12:33:45;6.57;;;1.50;;
32321;SDS011;61553;48.994;8.940;2022-07-05T12:36:16;4.40;;;1.05;;
32321;SDS011;61553;48.994;8.940;2022-07-05T12:38:42;5.97;;;1.60;;
32321;SDS011;61553;48.994;8.940;2022-07-05T12:41:08;4.82;;;1.50;;
32321;SDS011;61553;48.994;8.940;2022-07-05T12:43:47;2.90;;;1.10;;
32321;SDS011;61553;48.994;8.940;2022-07-05T12:46:14;4.50;;;1.05;;
32321;SDS011;61553;48.994;8.940;2022-07-05T12:48:40;3.22;;;1.00;;
32321;SDS011;61553;48.994;8.940;2022-07-05T12:51:06;4.57;;;1.13;;
32321;SDS011;61553;48.994;8.940;2022-07-05T12:53:33;4.57;;;1.00;;
32321;SDS011;61553;48.994;8.940;2022-07-05T12:56:22;3.05;;;0.95;;
32321;SDS011;61553;48.994;8.940;2022-07-05T12:59:10;2.63;;;1.00;;
32321;SDS011;61553;48.994;8.940;2022-07-05T13:01:40;6.57;;;1.10;;
32321;SDS011;61553;48.994;8.940;2022-07-05T13:04:11;1.98;;;0.93;;
32321;SDS011;61553;48.994;8.940;2022-07-05T13:14:47;1.60;;;0.90;;
32321;SDS011;61553;48.994;8.940;2022-07-05T13:17:15;2.60;;;0.80;;
32321;SDS011;61553;48.994;8.940;2022-07-05T13:19:42;6.20;;;1.00;;
32321;SDS011;61553;48.994;8.940;2022-07-05T13:22:10;5.15;;;1.30;;
32321;SDS011;61553;48.994;8.940;2022-07-05T13:24:36;5.43;;;1.08;;
32321;SDS011;61553;48.994;8.940;2022-07-05T13:27:03;3.42;;;1.20;;
32321;SDS011;61553;48.994;8.940;2022-07-05T13:29:29;1.65;;;1.00;;
32321;SDS011;61553;48.994;8.940;2022-07-05T13:31:55;4.03;;;1.17;;
32321;SDS011;61553;48.994;8.940;2022-07-05T13:34:21;3.92;;;0.90;;
32321;SDS011;61553;48.994;8.940;2022-07-05T13:36:51;3.38;;;1.10;;
32321;SDS011;61553;48.994;8.940;2022-07-05T13:39:18;4.43;;;1.38;;
32321;SDS011;61553;48.994;8.940;2022-07-05T13:41:46;3.25;;;1.00;;
32321;SDS011;61553;48.994;8.940;2022-07-05T13:44:13;7.20;;;1.30;;
32321;SDS011;61553;48.994;8.940;2022-07-05T13:46:39;2.05;;;0.93;;
32321;SDS011;61553;48.994;8.940;2022-07-05T13:49:04;3.28;;;1.20;;
32321;SDS011;61553;48.994;8.940;2022-07-05T13:51:30;1.83;;;1.08;;
32321;SDS011;61553;48.994;8.940;2022-07-05T13:53:56;4.38;;;1.30;;
32321;SDS011;61553;48.994;8.940;2022-07-05T13:56:21;5.78;;;1.20;;
32321;SDS011;61553;48.994;8.940;2022-07-05T13:58:47;4.07;;;1.08;;
32321;SDS011;61553;48.994;8.940;2022-07-05T14:01:13;2.83;;;1.10;;
32321;SDS011;61553;48.994;8.940;2022-07-05T14:03:39;3.28;;;1.10;;
32321;SDS011;61553;48.994;8.940;2022-07-05T14:06:05;3.42;;;1.10;;
32321;SDS011;61553;48.994;8.940;2022-07-05T14:08:31;4.55;;;1.20;;
32321;SDS011;61553;48.994;8.940;2022-07-05T14:10:56;1.85;;;1.25;;
32321;SDS011;61553;48.994;8.940;2022-07-05T14:13:24;5.35;;;1.10;;
32321;SDS011;61553;48.994;8.940;2022-07-05T14:15:50;4.35;;;1.15;;
32321;SDS011;61553;48.994;8.940;2022-07-05T14:18:17;4.03;;;1.08;;
32321;SDS011;61553;48.994;8.940;2022-07-05T14:20:44;2.92;;;1.17;;
32321;SDS011;61553;48.994;8.940;2022-07-05T14:23:12;3.85;;;1.10;;
32321;SDS011;61553;48.994;8.940;2022-07-05T14:25:41;6.03;;;1.45;;
32321;SDS011;61553;48.994;8.940;2022-07-05T14:28:07;2.83;;;1.27;;
32321;SDS011;61553;48.994;8.940;2022-07-05T14:30:37;2.35;;;1.00;;
32321;SDS011;61553;48.994;8.940;2022-07-05T14:33:04;2.38;;;0.80;;
32321;SDS011;61553;48.994;8.940;2022-07-05T14:35:30;3.38;;;1.05;;
32321;SDS011;61553;48.994;8.940;2022-07-05T14:37:56;3.83;;;1.20;;
32321;SDS011;61553;48.994;8.940;2022-07-05T14:40:23;2.75;;;1.27;;
32321;SDS011;61553;48.994;8.940;2022-07-05T14:42:50;2.92;;;1.27;;
32321;SDS011;61553;48.994;8.940;2022-07-05T14:45:20;1.92;;;0.85;;
32321;SDS011;61553;48.994;8.940;2022-07-05T14:47:47;3.55;;;1.00;;
32321;SDS011;61553;48.994;8.940;2022-07-05T14:50:13;2.47;;;1.00;;
32321;SDS011;61553;48.994;8.940;2022-07-05T14:52:39;4.70;;;1.42;;
32321;SDS011;61553;48.994;8.940;2022-07-05T14:55:06;2.50;;;1.35;;
32321;SDS011;61553;48.994;8.940;2022-07-05T14:57:32;2.70;;;1.30;;
32321;SDS011;61553;48.994;8.940;2022-07-05T14:59:57;2.55;;;1.02;;
32321;SDS011;61553;48.994;8.940;2022-07-05T15:02:23;3.83;;;1.08;;
32321;SDS011;61553;48.994;8.940;2022-07-05T15:04:49;4.00;;;0.90;;
32321;SDS011;61553;48.994;8.940;2022-07-05T15:07:15;2.90;;;1.23;;
32321;SDS011;61553;48.994;8.940;2022-07-05T15:09:40;3.78;;;1.02;;
32321;SDS011;61553;48.994;8.940;2022-07-05T15:12:06;2.78;;;1.00;;
32321;SDS011;61553;48.994;8.940;2022-07-05T15:14:32;2.10;;;0.80;;